createdAt,value
2018-03-28T00:00:14.716Z,21.02
2018-03-28T00:02:40.776Z,20.15
2018-03-28T00:05:06.832Z,21.83
2018-03-28T00:07:32.915Z,24.17
2018-03-28T00:09:59.728Z,21.37
2018-03-28T00:12:25.795Z,22.62
2018-03-28T00:14:51.853Z,23.92
2018-03-28T00:17:17.938Z,22.85
2018-03-28T00:19:44.000Z,23.67
2018-03-28T00:22:10.095Z,24.05
2018-03-28T00:24:36.202Z,24.15
2018-03-28T00:27:03.014Z,22.15
2018-03-28T00:29:29.084Z,23.20
2018-03-28T00:31:55.944Z,23.20
2018-03-28T00:34:22.744Z,23.33
2018-03-28T00:36:48.817Z,23.60
2018-03-28T00:39:14.901Z,22.92
2018-03-28T00:41:40.959Z,21.90
2018-03-28T00:44:07.037Z,25.85
2018-03-28T00:46:33.936Z,23.45
2018-03-28T00:49:00.056Z,22.92
2018-03-28T00:51:36.181Z,24.40
2018-03-28T00:54:02.260Z,23.83
2018-03-28T00:56:28.322Z,24.12
2018-03-28T00:58:54.392Z,24.58
2018-03-28T01:01:20.468Z,24.80
2018-03-28T01:03:47.328Z,23.58
2018-03-28T01:06:14.153Z,23.02
2018-03-28T01:08:40.204Z,22.98
2018-03-28T01:11:06.276Z,22.92
2018-03-28T01:13:32.340Z,23.62
2018-03-28T01:15:58.404Z,23.35
2018-03-28T01:18:24.474Z,23.90
2018-03-28T01:20:50.561Z,23.95
2018-03-28T01:23:16.620Z,24.17
2018-03-28T01:25:42.697Z,23.65
2018-03-28T01:28:08.753Z,23.52
2018-03-28T01:30:34.823Z,22.25
2018-03-28T01:33:00.891Z,23.80
2018-03-28T01:35:27.685Z,22.30
2018-03-28T01:37:53.763Z,23.42
2018-03-28T01:40:20.567Z,23.38
2018-03-28T01:42:47.386Z,22.75
2018-03-28T01:45:14.255Z,23.80
2018-03-28T01:47:40.328Z,22.48
2018-03-28T01:50:06.386Z,22.00
2018-03-28T01:52:32.449Z,22.80
2018-03-28T01:54:59.246Z,22.20
2018-03-28T01:57:25.326Z,22.77
2018-03-28T01:59:51.384Z,23.62
2018-03-28T02:02:18.175Z,21.65
2018-03-28T02:04:44.251Z,22.23
2018-03-28T02:07:10.315Z,19.92
2018-03-28T02:09:37.182Z,22.20
2018-03-28T02:12:03.234Z,21.35
2018-03-28T02:14:29.301Z,20.65
2018-03-28T02:16:55.350Z,20.95
2018-03-28T02:19:21.414Z,18.52
2018-03-28T02:21:48.207Z,19.58
2018-03-28T02:24:14.280Z,19.70
2018-03-28T02:26:40.342Z,18.87
2018-03-28T02:29:07.168Z,18.30
2018-03-28T02:31:33.239Z,19.02
2018-03-28T02:33:59.332Z,18.17
2018-03-28T02:36:25.400Z,19.42
2018-03-28T02:38:51.452Z,17.62
2018-03-28T02:41:18.274Z,19.50
2018-03-28T02:43:44.413Z,18.92
2018-03-28T02:46:10.450Z,17.50
2018-03-28T02:48:36.531Z,17.52
2018-03-28T02:51:02.610Z,19.45
2018-03-28T02:53:28.680Z,17.23
2018-03-28T02:55:55.507Z,16.37
2018-03-28T02:58:21.589Z,17.90
2018-03-28T03:00:47.675Z,15.82
2018-03-28T03:03:13.747Z,15.45
2018-03-28T03:05:41.658Z,15.15
2018-03-28T03:08:07.731Z,16.10
2018-03-28T03:10:33.826Z,14.93
2018-03-28T03:12:59.894Z,17.12
2018-03-28T03:15:25.979Z,13.38
2018-03-28T03:17:52.804Z,14.27
2018-03-28T03:20:18.900Z,14.70
2018-03-28T03:22:44.971Z,14.07
2018-03-28T03:25:11.052Z,11.90
2018-03-28T03:27:37.952Z,14.68
2018-03-28T03:30:04.029Z,12.40
2018-03-28T03:32:30.122Z,12.95
2018-03-28T03:34:56.194Z,12.27
2018-03-28T03:37:22.286Z,11.93
2018-03-28T03:39:48.337Z,12.80
2018-03-28T03:42:14.466Z,11.38
2018-03-28T03:44:40.526Z,9.60
2018-03-28T03:47:06.599Z,10.77
2018-03-28T03:49:33.407Z,10.70
2018-03-28T03:51:59.470Z,10.65
2018-03-28T03:54:25.539Z,10.90
2018-03-28T03:56:51.607Z,10.75
2018-03-28T03:59:17.710Z,9.15
2018-03-28T04:01:44.514Z,9.88
2018-03-28T04:04:11.314Z,10.52
2018-03-28T04:06:38.129Z,10.27
2018-03-28T04:09:05.156Z,9.32
2018-03-28T04:11:31.222Z,7.75
2018-03-28T04:13:57.298Z,10.48
2018-03-28T04:16:24.099Z,11.75
2018-03-28T04:18:50.157Z,10.50
2018-03-28T04:21:16.210Z,9.05
2018-03-28T04:23:42.291Z,10.05
2018-03-28T04:26:08.355Z,9.63
2018-03-28T04:28:34.436Z,10.60
2018-03-28T04:31:00.509Z,10.75
2018-03-28T04:33:26.574Z,9.93
2018-03-28T04:35:52.642Z,11.07
2018-03-28T04:38:18.715Z,10.02
2018-03-28T04:40:44.775Z,10.48
2018-03-28T04:43:10.866Z,12.02
2018-03-28T04:45:37.679Z,10.40
2018-03-28T04:48:03.759Z,10.63
2018-03-28T04:50:30.574Z,11.93
2018-03-28T04:52:56.659Z,11.48
2018-03-28T04:55:23.476Z,10.90
2018-03-28T04:57:49.564Z,11.55
2018-03-28T05:00:15.661Z,11.25
2018-03-28T05:02:41.746Z,11.45
2018-03-28T05:05:07.814Z,12.60
2018-03-28T05:07:33.894Z,13.13
2018-03-28T05:09:59.966Z,12.80
2018-03-28T05:12:26.051Z,12.85
2018-03-28T05:14:52.144Z,13.00
2018-03-28T05:17:18.225Z,14.18
2018-03-28T05:19:44.307Z,13.00
2018-03-28T05:22:10.471Z,10.55
2018-03-28T05:24:36.542Z,12.77
2018-03-28T05:27:02.651Z,11.95
2018-03-28T05:29:28.717Z,11.73
2018-03-28T05:31:54.785Z,12.70
2018-03-28T05:34:20.881Z,11.05
2018-03-28T05:36:46.982Z,12.25
2018-03-28T05:39:13.066Z,11.50
2018-03-28T05:41:39.139Z,14.38
2018-03-28T05:44:05.210Z,12.20
2018-03-28T05:46:31.276Z,13.90
2018-03-28T05:48:57.344Z,11.85
2018-03-28T05:51:23.405Z,12.48
2018-03-28T05:53:49.496Z,11.10
2018-03-28T05:56:15.572Z,11.75
2018-03-28T05:58:41.656Z,12.80
2018-03-28T06:01:07.730Z,11.57
2018-03-28T06:03:34.535Z,11.18
2018-03-28T06:06:00.603Z,12.75
2018-03-28T06:08:27.418Z,10.40
2018-03-28T06:10:53.490Z,9.60
2018-03-28T06:13:19.553Z,10.60
2018-03-28T06:15:45.615Z,8.77
2018-03-28T06:18:11.690Z,9.10
2018-03-28T06:20:37.751Z,7.68
2018-03-28T06:23:04.550Z,7.90
2018-03-28T06:25:30.635Z,9.35
2018-03-28T06:27:57.442Z,8.63
2018-03-28T06:30:23.516Z,6.95
2018-03-28T06:32:49.588Z,7.40
2018-03-28T06:35:15.658Z,6.90
2018-03-28T06:37:41.718Z,6.87
2018-03-28T06:40:07.798Z,8.55
2018-03-28T06:42:33.850Z,8.05
2018-03-28T06:44:59.939Z,8.73
2018-03-28T06:47:26.112Z,6.65
2018-03-28T06:49:52.194Z,7.97
2018-03-28T06:52:18.275Z,6.53
2018-03-28T06:54:45.117Z,5.87
2018-03-28T06:57:11.948Z,5.97
2018-03-28T06:59:38.073Z,4.90
2018-03-28T07:02:04.130Z,5.47
2018-03-28T07:04:30.219Z,4.10
2018-03-28T07:06:56.291Z,4.43
2018-03-28T07:09:22.356Z,4.70
2018-03-28T07:11:48.431Z,5.20
2018-03-28T07:14:14.506Z,6.32
2018-03-28T07:16:40.593Z,5.12
2018-03-28T07:19:06.667Z,3.90
2018-03-28T07:21:32.750Z,5.78
2018-03-28T07:23:59.564Z,6.43
2018-03-28T07:26:25.661Z,6.18
2018-03-28T07:28:51.741Z,5.28
2018-03-28T07:31:17.838Z,6.20
2018-03-28T07:33:43.903Z,6.80
2018-03-28T07:36:09.978Z,7.20
2018-03-28T07:38:36.059Z,7.43
2018-03-28T07:41:02.154Z,6.85
2018-03-28T07:43:28.242Z,7.90
2018-03-28T07:45:54.301Z,7.55
2018-03-28T07:48:20.375Z,7.50
2018-03-28T07:50:47.195Z,8.57
2018-03-28T07:53:13.272Z,8.13
2018-03-28T07:55:40.087Z,7.15
2018-03-28T07:58:06.168Z,8.25
2018-03-28T08:00:32.974Z,6.97
2018-03-28T08:02:59.060Z,7.57
2018-03-28T08:05:25.870Z,6.90
2018-03-28T08:07:51.951Z,7.35
2018-03-28T08:10:18.757Z,7.15
2018-03-28T08:12:44.861Z,6.80
2018-03-28T08:15:10.931Z,7.10
2018-03-28T08:17:36.999Z,6.93
2018-03-28T08:20:03.091Z,7.95
2018-03-28T08:22:29.164Z,7.05
2018-03-28T08:24:55.244Z,7.20
2018-03-28T08:27:21.311Z,7.15
2018-03-28T08:29:47.391Z,7.18
2018-03-28T08:32:13.457Z,6.80
2018-03-28T08:34:39.539Z,6.30
2018-03-28T08:37:05.614Z,6.90
2018-03-28T08:39:32.461Z,6.40
2018-03-28T08:41:59.284Z,6.43
2018-03-28T08:44:25.387Z,6.80
2018-03-28T08:46:51.492Z,5.78
2018-03-28T08:49:18.315Z,6.25
2018-03-28T08:51:44.411Z,6.07
2018-03-28T08:54:10.504Z,6.72
2018-03-28T08:56:36.595Z,8.07
2018-03-28T08:59:02.707Z,7.25
2018-03-28T09:01:29.554Z,7.87
2018-03-28T09:03:56.388Z,7.90
2018-03-28T09:06:22.498Z,9.35
2018-03-28T09:08:48.574Z,6.55
2018-03-28T09:11:14.676Z,7.72
2018-03-28T09:13:40.782Z,7.32
2018-03-28T09:16:06.916Z,7.43
2018-03-28T09:18:33.010Z,7.35
2018-03-28T09:20:59.109Z,6.95
2018-03-28T09:23:25.209Z,5.93
2018-03-28T09:25:52.060Z,5.53
2018-03-28T09:28:18.907Z,5.97
2018-03-28T09:30:44.996Z,5.62
2018-03-28T09:33:11.098Z,7.03
2018-03-28T09:35:37.921Z,6.68
2018-03-28T09:38:04.020Z,5.50
2018-03-28T09:40:30.112Z,7.55
2018-03-28T09:42:56.212Z,7.28
2018-03-28T09:45:22.296Z,6.75
2018-03-28T09:47:48.378Z,7.53
2018-03-28T09:50:14.436Z,4.70
2018-03-28T09:52:40.519Z,5.53
2018-03-28T09:55:07.327Z,7.05
2018-03-28T09:57:33.399Z,6.93
2018-03-28T10:00:00.239Z,7.40
2018-03-28T10:02:30.218Z,6.00
2018-03-28T10:04:59.073Z,7.10
2018-03-28T10:07:25.157Z,6.05
2018-03-28T10:09:51.244Z,6.75
2018-03-28T10:12:17.306Z,6.20
2018-03-28T10:14:43.391Z,5.10
2018-03-28T10:17:09.446Z,5.70
2018-03-28T10:19:35.536Z,5.45
2018-03-28T10:22:02.341Z,4.47
2018-03-28T10:24:28.427Z,6.07
2018-03-28T10:26:54.504Z,5.70
2018-03-28T10:29:20.586Z,4.80
2018-03-28T10:31:47.401Z,5.37
2018-03-28T10:34:13.521Z,5.07
2018-03-28T10:36:39.586Z,4.53
2018-03-28T10:39:05.659Z,4.50
2018-03-28T10:41:32.499Z,4.32
2018-03-28T10:43:58.619Z,4.20
2018-03-28T10:46:24.718Z,4.50
2018-03-28T10:48:50.800Z,4.55
2018-03-28T10:51:16.891Z,3.92
2018-03-28T10:53:42.978Z,4.00
2018-03-28T10:56:09.091Z,4.00
2018-03-28T10:58:35.208Z,4.12
2018-03-28T11:01:01.286Z,3.83
2018-03-28T11:03:27.375Z,3.78
2018-03-28T11:05:53.481Z,4.05
2018-03-28T11:08:19.564Z,4.50
2018-03-28T11:10:45.663Z,3.35
2018-03-28T11:13:11.739Z,4.15
2018-03-28T11:15:37.827Z,4.05
2018-03-28T11:18:03.932Z,3.92
2018-03-28T11:20:30.049Z,3.80
2018-03-28T11:22:56.102Z,3.22
2018-03-28T11:25:22.196Z,4.57
2018-03-28T11:27:48.280Z,3.53
2018-03-28T11:30:14.561Z,3.90
2018-03-28T11:32:41.420Z,4.07
2018-03-28T11:35:07.463Z,3.40
2018-03-28T11:37:34.298Z,4.12
2018-03-28T11:40:00.384Z,5.12
2018-03-28T11:42:26.486Z,4.62
2018-03-28T11:44:52.562Z,3.80
2018-03-28T11:47:18.650Z,4.60
2018-03-28T11:49:44.852Z,4.37
2018-03-28T11:52:10.934Z,3.65
2018-03-28T11:54:37.066Z,3.55
2018-03-28T11:57:03.259Z,3.72
2018-03-28T11:59:29.345Z,3.45
2018-03-28T12:01:55.433Z,3.28
2018-03-28T12:04:22.295Z,4.20
2018-03-28T12:06:48.440Z,3.50
2018-03-28T12:09:14.483Z,3.50
2018-03-28T12:11:40.578Z,3.58
2018-03-28T12:14:06.661Z,4.07
2018-03-28T12:16:32.794Z,3.70
2018-03-28T12:18:58.870Z,2.83
2018-03-28T12:21:24.984Z,3.37
2018-03-28T12:23:51.066Z,3.63
2018-03-28T12:26:17.202Z,2.75
2018-03-28T12:28:44.034Z,3.10
2018-03-28T12:31:10.109Z,3.00
2018-03-28T12:33:36.934Z,2.70
2018-03-28T12:36:03.028Z,3.40
2018-03-28T12:38:29.114Z,4.00
2018-03-28T12:40:55.183Z,3.90
2018-03-28T12:43:21.295Z,3.20
2018-03-28T12:45:48.119Z,3.23
2018-03-28T12:48:14.218Z,3.37
2018-03-28T12:50:40.314Z,3.07
2018-03-28T12:53:06.426Z,3.60
2018-03-28T12:55:32.674Z,2.80
2018-03-28T12:57:58.626Z,3.73
2018-03-28T13:00:24.734Z,3.60
2018-03-28T13:02:50.814Z,2.40
2018-03-28T13:05:17.669Z,3.40
2018-03-28T13:07:44.490Z,3.10
2018-03-28T13:10:10.647Z,2.57
2018-03-28T13:12:36.683Z,2.70
2018-03-28T13:15:02.774Z,3.57
2018-03-28T13:17:29.621Z,3.40
2018-03-28T13:19:55.729Z,4.60
2018-03-28T13:22:21.818Z,3.53
2018-03-28T13:24:47.968Z,2.67
2018-03-28T13:27:14.734Z,3.00
2018-03-28T13:29:40.825Z,2.60
2018-03-28T13:32:06.930Z,3.00
2018-03-28T13:34:33.032Z,3.10
2018-03-28T13:36:59.172Z,2.90
2018-03-28T13:39:25.250Z,2.70
2018-03-28T13:41:51.349Z,2.80
2018-03-28T13:44:17.456Z,2.90
2018-03-28T13:46:43.544Z,3.20
2018-03-28T13:49:09.610Z,2.60
2018-03-28T13:51:36.437Z,2.90
2018-03-28T13:54:02.546Z,3.23
2018-03-28T13:56:28.627Z,2.90
2018-03-28T13:58:54.744Z,4.80
2018-03-28T14:01:20.839Z,3.90
2018-03-28T14:03:46.936Z,3.23
2018-03-28T14:06:13.012Z,3.50
2018-03-28T14:08:39.090Z,3.27
2018-03-28T14:11:05.166Z,3.30
2018-03-28T14:13:31.998Z,2.90
2018-03-28T14:15:58.087Z,3.50
2018-03-28T14:18:24.199Z,3.70
2018-03-28T14:20:51.019Z,3.40
2018-03-28T14:23:17.106Z,3.80
2018-03-28T14:25:43.183Z,3.00
2018-03-28T14:28:09.278Z,3.20
2018-03-28T14:30:35.355Z,3.40
2018-03-28T14:33:01.489Z,3.27
2018-03-28T14:35:27.599Z,3.37
2018-03-28T14:37:53.681Z,3.37
2018-03-28T14:40:19.755Z,3.30
2018-03-28T14:42:54.591Z,3.20
2018-03-28T14:45:12.668Z,3.33
2018-03-28T14:47:38.834Z,4.32
2018-03-28T14:50:04.911Z,4.68
2018-03-28T14:52:30.993Z,3.87
2018-03-28T14:54:57.064Z,3.50
2018-03-28T14:57:23.174Z,4.60
2018-03-28T14:59:49.980Z,4.17
2018-03-28T15:02:17.113Z,4.12
2018-03-28T15:04:43.221Z,4.28
2018-03-28T15:07:09.305Z,5.03
2018-03-28T15:09:35.500Z,8.02
2018-03-28T15:12:01.565Z,31.60
2018-03-28T15:14:27.671Z,11.13
2018-03-28T15:16:53.738Z,5.90
2018-03-28T15:19:19.819Z,4.77
2018-03-28T15:21:46.629Z,4.93
2018-03-28T15:24:12.752Z,4.73
2018-03-28T15:26:38.818Z,5.50
2018-03-28T15:29:04.942Z,4.43
2018-03-28T15:31:31.046Z,4.10
2018-03-28T15:33:57.132Z,4.55
2018-03-28T15:36:23.220Z,8.82
2018-03-28T15:38:49.312Z,6.10
2018-03-28T15:41:15.374Z,4.47
2018-03-28T15:43:42.214Z,5.12
2018-03-28T15:46:08.332Z,5.45
2018-03-28T15:48:34.456Z,4.87
2018-03-28T15:51:00.605Z,5.20
2018-03-28T15:53:26.698Z,7.27
2018-03-28T15:55:53.534Z,4.00
2018-03-28T15:58:20.387Z,4.55
2018-03-28T16:00:47.287Z,4.90
2018-03-28T16:03:13.377Z,6.00
2018-03-28T16:05:39.561Z,6.90
2018-03-28T16:08:05.656Z,5.70
2018-03-28T16:10:31.765Z,5.55
2018-03-28T16:12:57.856Z,5.15
2018-03-28T16:15:23.964Z,7.78
2018-03-28T16:17:50.151Z,10.57
2018-03-28T16:20:16.438Z,7.30
2018-03-28T16:22:42.529Z,5.00
2018-03-28T16:25:08.697Z,5.10
2018-03-28T16:27:34.866Z,6.28
2018-03-28T16:30:01.788Z,9.50
2018-03-28T16:32:27.882Z,8.60
2018-03-28T16:34:54.711Z,8.85
2018-03-28T16:37:20.928Z,7.10
2018-03-28T16:39:47.037Z,12.13
2018-03-28T16:42:13.195Z,9.88
2018-03-28T16:44:39.323Z,10.80
2018-03-28T16:47:05.463Z,7.20
2018-03-28T16:49:31.542Z,6.95
2018-03-28T16:51:57.668Z,7.32
2018-03-28T16:54:23.760Z,5.70
2018-03-28T16:56:49.920Z,5.60
2018-03-28T16:59:16.025Z,6.68
2018-03-28T17:01:42.917Z,5.28
2018-03-28T17:04:09.070Z,6.12
2018-03-28T17:06:35.179Z,6.12
2018-03-28T17:09:01.333Z,6.10
2018-03-28T17:11:27.527Z,7.45
2018-03-28T17:13:54.382Z,5.30
2018-03-28T17:16:21.198Z,8.85
2018-03-28T17:18:47.319Z,6.05
2018-03-28T17:21:13.430Z,5.18
2018-03-28T17:23:40.267Z,5.95
2018-03-28T17:26:07.184Z,6.25
2018-03-28T17:28:33.310Z,5.95
2018-03-28T17:30:59.512Z,4.93
2018-03-28T17:33:26.398Z,5.65
2018-03-28T17:35:52.493Z,7.22
2018-03-28T17:38:19.410Z,6.50
2018-03-28T17:40:45.558Z,6.90
2018-03-28T17:43:11.743Z,8.02
2018-03-28T17:45:38.641Z,6.43
2018-03-28T17:48:04.770Z,4.60
2018-03-28T17:50:30.880Z,5.90
2018-03-28T17:52:57.725Z,5.75
2018-03-28T17:55:23.935Z,7.43
2018-03-28T17:57:50.063Z,7.72
2018-03-28T18:00:16.307Z,6.95
2018-03-28T18:02:42.422Z,6.05
2018-03-28T18:05:08.625Z,6.90
2018-03-28T18:07:35.690Z,8.18
2018-03-28T18:10:02.644Z,8.85
2018-03-28T18:12:29.493Z,9.75
2018-03-28T18:14:55.680Z,8.70
2018-03-28T18:17:21.837Z,9.35
2018-03-28T18:19:47.992Z,9.65
2018-03-28T18:22:14.112Z,8.32
2018-03-28T18:24:40.318Z,8.77
2018-03-28T18:27:06.414Z,8.27
2018-03-28T18:29:32.507Z,6.82
2018-03-28T18:31:58.621Z,6.18
2018-03-28T18:34:25.493Z,6.40
2018-03-28T18:36:51.611Z,6.60
2018-03-28T18:39:18.436Z,6.95
2018-03-28T18:41:44.544Z,5.50
2018-03-28T18:44:10.660Z,6.25
2018-03-28T18:46:36.831Z,7.15
2018-03-28T18:49:02.929Z,6.10
2018-03-28T18:51:29.011Z,5.50
2018-03-28T18:53:55.158Z,4.80
2018-03-28T18:56:21.299Z,5.62
2018-03-28T18:58:48.172Z,5.68
2018-03-28T19:01:14.310Z,4.87
2018-03-28T19:03:40.426Z,4.28
2018-03-28T19:06:06.556Z,6.30
2018-03-28T19:08:32.776Z,4.87
2018-03-28T19:10:58.890Z,4.45
2018-03-28T19:13:25.703Z,4.30
2018-03-28T19:15:51.906Z,4.53
2018-03-28T19:18:17.988Z,4.00
2018-03-28T19:20:44.076Z,4.10
2018-03-28T19:23:10.224Z,4.62
2018-03-28T19:25:36.308Z,3.97
2018-03-28T19:28:02.434Z,4.00
2018-03-28T19:30:28.622Z,5.20
2018-03-28T19:32:54.781Z,3.47
2018-03-28T19:35:20.894Z,4.00
2018-03-28T19:37:47.775Z,3.83
2018-03-28T19:40:13.969Z,3.72
2018-03-28T19:42:40.063Z,3.90
2018-03-28T19:45:06.195Z,6.18
2018-03-28T19:47:32.468Z,4.93
2018-03-28T19:49:58.622Z,5.25
2018-03-28T19:52:24.770Z,5.47
2018-03-28T19:54:51.627Z,4.35
2018-03-28T19:57:18.546Z,4.97
2018-03-28T19:59:44.684Z,5.53
2018-03-28T20:02:10.818Z,5.10
2018-03-28T20:04:36.930Z,4.50
2018-03-28T20:07:03.127Z,5.35
2018-03-28T20:09:29.275Z,4.50
2018-03-28T20:11:56.120Z,4.35
2018-03-28T20:14:22.324Z,3.78
2018-03-28T20:16:48.482Z,4.20
2018-03-28T20:19:14.618Z,3.45
2018-03-28T20:21:40.759Z,4.78
2018-03-28T20:24:07.026Z,4.75
2018-03-28T20:26:33.130Z,3.95
2018-03-28T20:28:59.281Z,4.18
2018-03-28T20:31:25.355Z,3.25
2018-03-28T20:33:52.201Z,3.60
2018-03-28T20:36:18.370Z,3.50
2018-03-28T20:38:44.479Z,3.65
2018-03-28T20:41:10.655Z,3.33
2018-03-28T20:43:36.755Z,3.65
2018-03-28T20:46:02.863Z,3.12
2018-03-28T20:48:29.022Z,2.92
2018-03-28T20:50:55.152Z,2.72
2018-03-28T20:53:21.234Z,2.87
2018-03-28T20:55:48.087Z,2.80
2018-03-28T20:58:14.898Z,2.83
2018-03-28T21:00:41.076Z,2.50
2018-03-28T21:03:07.138Z,3.12
2018-03-28T21:05:33.269Z,2.60
2018-03-28T21:07:59.347Z,2.60
2018-03-28T21:10:25.414Z,3.35
2018-03-28T21:12:52.319Z,3.17
2018-03-28T21:15:18.446Z,2.35
2018-03-28T21:17:44.638Z,2.47
2018-03-28T21:20:10.718Z,2.83
2018-03-28T21:22:36.818Z,2.70
2018-03-28T21:25:02.913Z,2.95
2018-03-28T21:27:29.138Z,2.72
2018-03-28T21:29:55.293Z,4.05
2018-03-28T21:32:21.602Z,2.45
2018-03-28T21:34:47.703Z,2.10
2018-03-28T21:37:13.767Z,2.95
2018-03-28T21:39:40.564Z,2.83
2018-03-28T21:42:06.674Z,2.65
2018-03-28T21:44:33.514Z,3.00
2018-03-28T21:47:00.407Z,2.53
2018-03-28T21:49:26.490Z,2.17
2018-03-28T21:51:52.587Z,1.37
2018-03-28T21:54:18.699Z,2.15
2018-03-28T21:56:44.779Z,1.62
2018-03-28T21:59:10.859Z,1.95
2018-03-28T22:01:37.661Z,1.90
2018-03-28T22:04:03.749Z,1.65
2018-03-28T22:06:30.583Z,1.60
2018-03-28T22:08:56.692Z,1.58
2018-03-28T22:11:23.486Z,1.27
2018-03-28T22:13:49.571Z,1.87
2018-03-28T22:16:15.643Z,1.25
2018-03-28T22:18:41.763Z,1.65
2018-03-28T22:21:07.907Z,1.40
2018-03-28T22:23:34.006Z,1.30
2018-03-28T22:26:00.131Z,1.70
2018-03-28T22:28:26.962Z,1.50
2018-03-28T22:30:53.063Z,1.60
2018-03-28T22:33:19.171Z,1.35
2018-03-28T22:35:45.977Z,1.45
2018-03-28T22:38:12.067Z,1.60
2018-03-28T22:40:38.142Z,1.75
2018-03-28T22:43:04.244Z,1.67
2018-03-28T22:45:31.074Z,1.55
2018-03-28T22:47:57.135Z,1.40
2018-03-28T22:50:23.951Z,1.55
2018-03-28T22:52:50.072Z,1.40
2018-03-28T22:55:16.179Z,1.95
2018-03-28T22:57:42.235Z,1.83
2018-03-28T23:00:08.296Z,1.75
2018-03-28T23:02:34.396Z,1.90
2018-03-28T23:05:00.486Z,1.98
2018-03-28T23:07:26.586Z,1.70
2018-03-28T23:09:52.642Z,3.53
2018-03-28T23:12:18.896Z,1.90
2018-03-28T23:14:44.958Z,1.83
2018-03-28T23:17:11.770Z,1.77
2018-03-28T23:19:37.902Z,2.35
2018-03-28T23:22:03.978Z,2.17
2018-03-28T23:24:30.065Z,2.35
2018-03-28T23:26:56.185Z,2.12
2018-03-28T23:29:22.254Z,2.60
2018-03-28T23:31:48.367Z,2.60
2018-03-28T23:34:14.481Z,2.87
2018-03-28T23:36:41.315Z,2.85
2018-03-28T23:39:07.409Z,3.22
2018-03-28T23:41:33.491Z,4.00
2018-03-28T23:43:59.618Z,2.92
2018-03-28T23:46:25.707Z,4.32
2018-03-28T23:48:51.865Z,2.75
2018-03-28T23:51:17.985Z,3.05
2018-03-28T23:53:44.086Z,3.25
2018-03-28T23:56:10.198Z,3.25
2018-03-28T23:58:36.272Z,4.35
